EJU31EQ LEPA-LFBD
Flight info
| Callsign | EJU31EQ |
|---|---|
| Flight time | 1h 1m |
| Altitude | 32000 |
| Route | DRAGO DCT PAPOS DCT UMURE N863 GIROM DCT AGN DCT SECHE/N0335F180 R17 MIRBA |
| Aircraft | A320/M-SDE2E3FGHIJ1RWXY/LB1 |
Departure
| Time | 2026-05-05 12:38 |
|---|---|
| Airport | Palma de Mallorca Airport (LEPA) |
Arrival
| Time | 2026-05-05 13:39 |
|---|---|
| Airport | Bordeaux–Mérignac Airport (LFBD) |
| Time | Latitude | Longitude | Altitude | Speed | Heading |
|---|---|---|---|---|---|
| 2026-05-05 12:08 | 39.55251 | 2.73221 | 44 ft | 0 kts | 197° |
| 2026-05-05 12:28 | 39.55266 | 2.73227 | 44 ft | 1 kts | 197° |
| 2026-05-05 12:28 | 39.55278 | 2.73231 | 44 ft | 2 kts | 178° |
| 2026-05-05 12:29 | 39.55295 | 2.73225 | 44 ft | 2 kts | 150° |
| 2026-05-05 12:29 | 39.55307 | 2.73211 | 44 ft | 2 kts | 123° |
| 2026-05-05 12:29 | 39.55313 | 2.73192 | 44 ft | 2 kts | 97° |
| 2026-05-05 12:29 | 39.55312 | 2.73172 | 44 ft | 2 kts | 71° |
| 2026-05-05 12:30 | 39.55308 | 2.73161 | 44 ft | 1 kts | 54° |
| 2026-05-05 12:30 | 39.55306 | 2.73156 | 44 ft | 0 kts | 58° |
| 2026-05-05 12:32 | 39.55307 | 2.73160 | 44 ft | 1 kts | 58° |
| 2026-05-05 12:32 | 39.55319 | 2.73183 | 44 ft | 4 kts | 58° |
| 2026-05-05 12:32 | 39.55341 | 2.73230 | 44 ft | 7 kts | 59° |
| 2026-05-05 12:33 | 39.55373 | 2.73299 | 44 ft | 10 kts | 60° |
| 2026-05-05 12:33 | 39.55416 | 2.73395 | 44 ft | 12 kts | 59° |
| 2026-05-05 12:33 | 39.55468 | 2.73506 | 44 ft | 13 kts | 58° |
| 2026-05-05 12:33 | 39.55519 | 2.73569 | 44 ft | 7 kts | 349° |
| 2026-05-05 12:34 | 39.55579 | 2.73530 | 44 ft | 9 kts | 329° |
| 2026-05-05 12:34 | 39.55648 | 2.73506 | 45 ft | 10 kts | 31° |
| 2026-05-05 12:34 | 39.55698 | 2.73598 | 45 ft | 11 kts | 59° |
| 2026-05-05 12:34 | 39.55746 | 2.73701 | 45 ft | 12 kts | 60° |
| 2026-05-05 12:35 | 39.55797 | 2.73811 | 45 ft | 13 kts | 58° |
| 2026-05-05 12:35 | 39.55852 | 2.73929 | 45 ft | 14 kts | 58° |
| 2026-05-05 12:35 | 39.55917 | 2.74060 | 45 ft | 15 kts | 58° |
| 2026-05-05 12:35 | 39.55981 | 2.74195 | 45 ft | 14 kts | 53° |
| 2026-05-05 12:36 | 39.56072 | 2.74284 | 46 ft | 15 kts | 34° |
| 2026-05-05 12:36 | 39.56154 | 2.74355 | 46 ft | 8 kts | 32° |
| 2026-05-05 12:36 | 39.56218 | 2.74355 | 46 ft | 9 kts | 328° |
| 2026-05-05 12:36 | 39.56239 | 2.74295 | 46 ft | 0 kts | 246° |
| 2026-05-05 12:37 | 39.56235 | 2.74289 | 46 ft | 2 kts | 237° |
| 2026-05-05 12:37 | 39.56158 | 2.74127 | 46 ft | 53 kts | 238° |
| 2026-05-05 12:37 | 39.55845 | 2.73458 | 45 ft | 117 kts | 238° |
| 2026-05-05 12:37 | 39.55327 | 2.72358 | 110 ft | 161 kts | 235° |
| 2026-05-05 12:38 | 39.54741 | 2.71147 | 778 ft | 155 kts | 237° |
| 2026-05-05 12:38 | 39.54121 | 2.69858 | 1526 ft | 152 kts | 236° |
| 2026-05-05 12:38 | 39.53466 | 2.68564 | 2179 ft | 157 kts | 235° |
| 2026-05-05 12:38 | 39.52821 | 2.67323 | 2602 ft | 172 kts | 235° |
| 2026-05-05 12:39 | 39.52125 | 2.65971 | 3021 ft | 189 kts | 235° |
| 2026-05-05 12:39 | 39.51368 | 2.64491 | 3442 ft | 206 kts | 236° |
| 2026-05-05 12:39 | 39.50491 | 2.62774 | 3870 ft | 227 kts | 236° |
| 2026-05-05 12:39 | 39.49504 | 2.60831 | 4895 ft | 224 kts | 236° |
| 2026-05-05 12:40 | 39.48542 | 2.58938 | 5827 ft | 225 kts | 237° |
| 2026-05-05 12:40 | 39.47559 | 2.57003 | 6723 ft | 227 kts | 237° |
| 2026-05-05 12:40 | 39.46584 | 2.55085 | 7614 ft | 229 kts | 236° |
| 2026-05-05 12:40 | 39.45566 | 2.53080 | 8559 ft | 229 kts | 237° |
| 2026-05-05 12:41 | 39.44942 | 2.50971 | 9186 ft | 244 kts | 264° |
| 2026-05-05 12:41 | 39.45307 | 2.48549 | 9607 ft | 271 kts | 294° |
| 2026-05-05 12:41 | 39.46865 | 2.46427 | 10172 ft | 295 kts | 323° |
| 2026-05-05 12:41 | 39.48920 | 2.44750 | 10794 ft | 309 kts | 323° |
| 2026-05-05 12:42 | 39.51039 | 2.42960 | 11377 ft | 322 kts | 322° |
| 2026-05-05 12:42 | 39.53196 | 2.41097 | 12137 ft | 326 kts | 320° |
| 2026-05-05 12:42 | 39.55282 | 2.38988 | 12855 ft | 329 kts | 314° |
| 2026-05-05 12:42 | 39.57201 | 2.36576 | 13633 ft | 331 kts | 309° |
| 2026-05-05 12:43 | 39.59026 | 2.34093 | 14435 ft | 332 kts | 307° |
| 2026-05-05 12:43 | 39.60819 | 2.31631 | 15198 ft | 333 kts | 307° |
| 2026-05-05 12:43 | 39.62648 | 2.29121 | 15912 ft | 337 kts | 307° |
| 2026-05-05 12:43 | 39.64494 | 2.26590 | 16634 ft | 339 kts | 307° |
| 2026-05-05 12:44 | 39.66338 | 2.24065 | 17332 ft | 340 kts | 307° |
| 2026-05-05 12:44 | 39.68100 | 2.21651 | 17944 ft | 343 kts | 306° |
| 2026-05-05 12:44 | 39.69949 | 2.19118 | 18585 ft | 345 kts | 306° |
| 2026-05-05 12:44 | 39.71846 | 2.16519 | 19213 ft | 348 kts | 306° |
| 2026-05-05 12:45 | 39.73769 | 2.13881 | 19823 ft | 350 kts | 306° |
| 2026-05-05 12:45 | 39.75692 | 2.11239 | 20417 ft | 353 kts | 306° |
| 2026-05-05 12:45 | 39.77613 | 2.08600 | 20988 ft | 356 kts | 305° |
| 2026-05-05 12:45 | 39.79597 | 2.05874 | 21580 ft | 358 kts | 305° |
| 2026-05-05 12:46 | 39.81554 | 2.03178 | 22125 ft | 360 kts | 305° |
| 2026-05-05 12:46 | 39.83553 | 2.00422 | 22665 ft | 363 kts | 305° |
| 2026-05-05 12:46 | 39.85536 | 1.97686 | 23176 ft | 366 kts | 305° |
| 2026-05-05 12:46 | 39.87550 | 1.94906 | 23692 ft | 369 kts | 305° |
| 2026-05-05 12:47 | 39.89609 | 1.92061 | 24193 ft | 371 kts | 305° |
| 2026-05-05 12:47 | 39.91697 | 1.89177 | 24682 ft | 374 kts | 304° |
| 2026-05-05 12:47 | 39.93765 | 1.86313 | 25153 ft | 376 kts | 304° |
| 2026-05-05 12:47 | 39.95843 | 1.83434 | 25582 ft | 379 kts | 304° |
| 2026-05-05 12:48 | 39.97958 | 1.80500 | 26028 ft | 382 kts | 304° |
| 2026-05-05 12:48 | 40.00218 | 1.77788 | 26453 ft | 394 kts | 313° |
| 2026-05-05 12:48 | 40.02591 | 1.75776 | 26830 ft | 407 kts | 322° |
| 2026-05-05 12:48 | 40.05257 | 1.74194 | 27207 ft | 416 kts | 328° |
| 2026-05-05 12:49 | 40.08145 | 1.72712 | 27574 ft | 420 kts | 329° |
| 2026-05-05 12:49 | 40.11206 | 1.71174 | 27935 ft | 423 kts | 328° |
| 2026-05-05 12:49 | 40.14222 | 1.69655 | 28360 ft | 422 kts | 328° |
| 2026-05-05 12:49 | 40.17214 | 1.68135 | 28703 ft | 424 kts | 328° |
| 2026-05-05 12:50 | 40.20358 | 1.66525 | 29036 ft | 425 kts | 328° |
| 2026-05-05 12:50 | 40.23316 | 1.65007 | 29348 ft | 427 kts | 328° |
| 2026-05-05 12:50 | 40.26391 | 1.63425 | 29672 ft | 429 kts | 327° |
| 2026-05-05 12:50 | 40.29468 | 1.61838 | 29932 ft | 432 kts | 327° |
| 2026-05-05 12:51 | 40.32586 | 1.60228 | 30298 ft | 432 kts | 327° |
| 2026-05-05 12:51 | 40.35766 | 1.58588 | 30625 ft | 433 kts | 327° |
| 2026-05-05 12:51 | 40.38813 | 1.57010 | 30920 ft | 435 kts | 327° |
| 2026-05-05 12:51 | 40.41968 | 1.55376 | 31237 ft | 436 kts | 327° |
| 2026-05-05 12:52 | 40.45003 | 1.53803 | 31509 ft | 437 kts | 327° |
| 2026-05-05 12:52 | 40.48006 | 1.52246 | 31786 ft | 438 kts | 327° |
| 2026-05-05 12:52 | 40.54117 | 1.49071 | 31890 ft | 440 kts | 327° |
| 2026-05-05 12:53 | 40.60364 | 1.45821 | 31897 ft | 441 kts | 327° |
| 2026-05-05 12:53 | 40.66579 | 1.42583 | 31889 ft | 441 kts | 327° |
| 2026-05-05 12:54 | 40.76000 | 1.37659 | 31894 ft | 440 kts | 328° |
| 2026-05-05 12:55 | 40.82068 | 1.34479 | 31886 ft | 441 kts | 327° |
| 2026-05-05 12:55 | 40.88114 | 1.31303 | 31891 ft | 440 kts | 327° |
| 2026-05-05 12:56 | 40.93840 | 1.28289 | 31896 ft | 440 kts | 327° |
| 2026-05-05 12:56 | 40.99514 | 1.25294 | 31901 ft | 442 kts | 327° |
| 2026-05-05 12:57 | 41.05232 | 1.22274 | 31901 ft | 441 kts | 327° |
| 2026-05-05 12:57 | 41.11533 | 1.19164 | 31896 ft | 446 kts | 332° |
| 2026-05-05 12:58 | 41.18365 | 1.17057 | 31902 ft | 457 kts | 341° |
| 2026-05-05 12:58 | 41.25512 | 1.16023 | 31912 ft | 463 kts | 345° |
| 2026-05-05 12:59 | 41.32888 | 1.15239 | 31909 ft | 462 kts | 345° |
| 2026-05-05 12:59 | 41.40307 | 1.14456 | 31904 ft | 463 kts | 346° |
| 2026-05-05 13:00 | 41.51463 | 1.13286 | 31895 ft | 464 kts | 346° |
| 2026-05-05 13:01 | 41.66207 | 1.11726 | 31895 ft | 464 kts | 346° |
| 2026-05-05 13:01 | 41.73591 | 1.10944 | 31894 ft | 464 kts | 346° |
| 2026-05-05 13:02 | 41.81001 | 1.10154 | 31905 ft | 465 kts | 346° |
| 2026-05-05 13:02 | 41.88355 | 1.09373 | 31900 ft | 465 kts | 346° |
| 2026-05-05 13:03 | 41.95763 | 1.08583 | 31907 ft | 464 kts | 346° |
| 2026-05-05 13:03 | 42.03097 | 1.07791 | 31899 ft | 465 kts | 346° |
| 2026-05-05 13:04 | 42.10453 | 1.07003 | 31910 ft | 465 kts | 346° |
| 2026-05-05 13:04 | 42.17352 | 1.06262 | 31912 ft | 465 kts | 346° |
| 2026-05-05 13:05 | 42.24472 | 1.05499 | 31906 ft | 463 kts | 347° |
| 2026-05-05 13:05 | 42.31588 | 1.04728 | 31908 ft | 463 kts | 347° |
| 2026-05-05 13:06 | 42.38723 | 1.03960 | 31909 ft | 462 kts | 347° |
| 2026-05-05 13:06 | 42.45940 | 1.03176 | 31897 ft | 463 kts | 347° |
| 2026-05-05 13:07 | 42.52979 | 1.02407 | 31888 ft | 463 kts | 348° |
| 2026-05-05 13:07 | 42.60026 | 1.01642 | 31896 ft | 461 kts | 347° |
| 2026-05-05 13:08 | 42.67070 | 1.00868 | 31893 ft | 462 kts | 348° |
| 2026-05-05 13:08 | 42.74113 | 1.00097 | 31890 ft | 460 kts | 348° |
| 2026-05-05 13:09 | 42.80632 | 0.99377 | 31894 ft | 460 kts | 348° |
| 2026-05-05 13:09 | 42.87295 | 0.98646 | 31899 ft | 460 kts | 348° |
| 2026-05-05 13:10 | 42.93863 | 0.97924 | 31908 ft | 460 kts | 349° |
| 2026-05-05 13:10 | 43.00435 | 0.97198 | 31917 ft | 459 kts | 349° |
| 2026-05-05 13:11 | 43.07392 | 0.96431 | 31929 ft | 459 kts | 349° |
| 2026-05-05 13:11 | 43.14600 | 0.95630 | 31933 ft | 458 kts | 349° |
| 2026-05-05 13:12 | 43.21804 | 0.94829 | 31933 ft | 458 kts | 349° |
| 2026-05-05 13:12 | 43.28851 | 0.94044 | 31936 ft | 458 kts | 349° |
| 2026-05-05 13:13 | 43.36046 | 0.93241 | 31940 ft | 457 kts | 350° |
| 2026-05-05 13:13 | 43.43207 | 0.92437 | 31931 ft | 456 kts | 350° |
| 2026-05-05 13:14 | 43.50462 | 0.91623 | 31936 ft | 456 kts | 350° |
| 2026-05-05 13:14 | 43.57642 | 0.90818 | 31931 ft | 456 kts | 350° |
| 2026-05-05 13:15 | 43.64864 | 0.90004 | 31932 ft | 456 kts | 350° |
| 2026-05-05 13:15 | 43.72144 | 0.89178 | 31743 ft | 455 kts | 351° |
| 2026-05-05 13:16 | 43.75654 | 0.88781 | 31257 ft | 454 kts | 351° |
| 2026-05-05 13:16 | 43.78962 | 0.88406 | 30651 ft | 455 kts | 351° |
| 2026-05-05 13:16 | 43.82200 | 0.88041 | 29977 ft | 457 kts | 351° |
| 2026-05-05 13:16 | 43.85461 | 0.87640 | 29260 ft | 457 kts | 349° |
| 2026-05-05 13:17 | 43.88744 | 0.86787 | 28651 ft | 450 kts | 341° |
| 2026-05-05 13:17 | 43.91803 | 0.85399 | 28157 ft | 441 kts | 334° |
| 2026-05-05 13:17 | 43.94665 | 0.83650 | 27662 ft | 434 kts | 331° |
| 2026-05-05 13:17 | 43.97456 | 0.81828 | 27166 ft | 430 kts | 331° |
| 2026-05-05 13:18 | 44.00186 | 0.80029 | 26685 ft | 425 kts | 331° |
| 2026-05-05 13:18 | 44.02852 | 0.78279 | 26207 ft | 421 kts | 332° |
| 2026-05-05 13:18 | 44.05478 | 0.76566 | 25741 ft | 417 kts | 332° |
| 2026-05-05 13:18 | 44.08058 | 0.74886 | 25266 ft | 413 kts | 333° |
| 2026-05-05 13:19 | 44.10665 | 0.73192 | 24790 ft | 409 kts | 333° |
| 2026-05-05 13:19 | 44.13232 | 0.71526 | 24321 ft | 405 kts | 333° |
| 2026-05-05 13:19 | 44.15769 | 0.69878 | 23831 ft | 401 kts | 333° |
| 2026-05-05 13:19 | 44.18344 | 0.68207 | 23334 ft | 397 kts | 333° |
| 2026-05-05 13:20 | 44.20851 | 0.66579 | 22869 ft | 393 kts | 333° |
| 2026-05-05 13:20 | 44.23309 | 0.64980 | 22417 ft | 388 kts | 333° |
| 2026-05-05 13:20 | 44.25773 | 0.63375 | 21964 ft | 384 kts | 333° |
| 2026-05-05 13:20 | 44.28213 | 0.61785 | 21523 ft | 381 kts | 333° |
| 2026-05-05 13:21 | 44.30596 | 0.60229 | 21087 ft | 377 kts | 333° |
| 2026-05-05 13:21 | 44.33012 | 0.58649 | 20634 ft | 374 kts | 333° |
| 2026-05-05 13:21 | 44.35416 | 0.57075 | 20185 ft | 372 kts | 333° |
| 2026-05-05 13:21 | 44.37755 | 0.55543 | 19742 ft | 369 kts | 333° |
| 2026-05-05 13:22 | 44.40082 | 0.54019 | 19312 ft | 366 kts | 333° |
| 2026-05-05 13:22 | 44.42373 | 0.52516 | 18879 ft | 364 kts | 333° |
| 2026-05-05 13:22 | 44.44646 | 0.51026 | 18450 ft | 361 kts | 333° |
| 2026-05-05 13:22 | 44.46944 | 0.49517 | 18016 ft | 359 kts | 333° |
| 2026-05-05 13:23 | 44.49535 | 0.47813 | 17520 ft | 357 kts | 333° |
| 2026-05-05 13:23 | 44.51779 | 0.46336 | 17084 ft | 356 kts | 333° |
| 2026-05-05 13:23 | 44.53986 | 0.44881 | 16652 ft | 354 kts | 333° |
| 2026-05-05 13:23 | 44.56220 | 0.43408 | 16214 ft | 352 kts | 333° |
| 2026-05-05 13:24 | 44.58431 | 0.41948 | 15781 ft | 351 kts | 333° |
| 2026-05-05 13:24 | 44.60640 | 0.40489 | 15356 ft | 349 kts | 333° |
| 2026-05-05 13:24 | 44.62808 | 0.39056 | 14937 ft | 347 kts | 333° |
| 2026-05-05 13:24 | 44.64977 | 0.37619 | 14514 ft | 345 kts | 333° |
| 2026-05-05 13:25 | 44.67144 | 0.36184 | 14087 ft | 343 kts | 333° |
| 2026-05-05 13:25 | 44.69297 | 0.34757 | 13671 ft | 340 kts | 332° |
| 2026-05-05 13:25 | 44.71372 | 0.33176 | 13234 ft | 336 kts | 320° |
| 2026-05-05 13:25 | 44.72970 | 0.30842 | 12817 ft | 328 kts | 301° |
| 2026-05-05 13:26 | 44.74014 | 0.28031 | 12428 ft | 323 kts | 292° |
| 2026-05-05 13:26 | 44.74947 | 0.25074 | 12007 ft | 320 kts | 291° |
| 2026-05-05 13:26 | 44.75826 | 0.22254 | 11601 ft | 318 kts | 291° |
| 2026-05-05 13:26 | 44.76720 | 0.19414 | 11193 ft | 315 kts | 291° |
| 2026-05-05 13:27 | 44.77607 | 0.16621 | 10793 ft | 312 kts | 292° |
| 2026-05-05 13:27 | 44.78484 | 0.13869 | 10400 ft | 310 kts | 292° |
| 2026-05-05 13:27 | 44.79364 | 0.11118 | 10120 ft | 302 kts | 292° |
| 2026-05-05 13:27 | 44.80211 | 0.08476 | 10013 ft | 288 kts | 292° |
| 2026-05-05 13:28 | 44.81025 | 0.05942 | 9884 ft | 277 kts | 292° |
| 2026-05-05 13:28 | 44.81813 | 0.03477 | 9519 ft | 276 kts | 292° |
| 2026-05-05 13:28 | 44.82609 | 0.00981 | 9150 ft | 275 kts | 292° |
| 2026-05-05 13:28 | 44.83391 | -0.01465 | 8801 ft | 273 kts | 292° |
| 2026-05-05 13:29 | 44.84167 | -0.03896 | 8459 ft | 271 kts | 292° |
| 2026-05-05 13:29 | 44.84927 | -0.06280 | 8124 ft | 269 kts | 292° |
| 2026-05-05 13:29 | 44.85694 | -0.08686 | 7788 ft | 267 kts | 292° |
| 2026-05-05 13:29 | 44.86448 | -0.11056 | 7456 ft | 265 kts | 292° |
| 2026-05-05 13:30 | 44.87201 | -0.13420 | 7122 ft | 263 kts | 292° |
| 2026-05-05 13:30 | 44.87940 | -0.15743 | 6788 ft | 261 kts | 292° |
| 2026-05-05 13:30 | 44.88533 | -0.18147 | 6413 ft | 259 kts | 275° |
| 2026-05-05 13:30 | 44.88290 | -0.20628 | 6056 ft | 256 kts | 246° |
| 2026-05-05 13:31 | 44.87418 | -0.22762 | 5736 ft | 254 kts | 239° |
| 2026-05-05 13:31 | 44.86488 | -0.24869 | 5412 ft | 253 kts | 239° |
| 2026-05-05 13:31 | 44.85578 | -0.26959 | 5178 ft | 247 kts | 239° |
| 2026-05-05 13:31 | 44.84690 | -0.29013 | 4915 ft | 242 kts | 239° |
| 2026-05-05 13:32 | 44.83815 | -0.31045 | 4652 ft | 238 kts | 240° |
| 2026-05-05 13:32 | 44.82977 | -0.32999 | 4468 ft | 231 kts | 240° |
| 2026-05-05 13:32 | 44.82131 | -0.34971 | 4282 ft | 224 kts | 240° |
| 2026-05-05 13:32 | 44.81338 | -0.36818 | 4109 ft | 217 kts | 240° |
| 2026-05-05 13:33 | 44.80567 | -0.38615 | 3951 ft | 210 kts | 240° |
| 2026-05-05 13:33 | 44.79830 | -0.40332 | 3793 ft | 202 kts | 240° |
| 2026-05-05 13:33 | 44.79114 | -0.41996 | 3689 ft | 191 kts | 240° |
| 2026-05-05 13:33 | 44.78453 | -0.43531 | 3567 ft | 180 kts | 240° |
| 2026-05-05 13:34 | 44.77834 | -0.45038 | 3387 ft | 178 kts | 249° |
| 2026-05-05 13:34 | 44.77719 | -0.46752 | 3243 ft | 176 kts | 276° |
| 2026-05-05 13:34 | 44.77967 | -0.48388 | 3103 ft | 165 kts | 285° |
| 2026-05-05 13:34 | 44.78307 | -0.49899 | 2966 ft | 155 kts | 287° |
| 2026-05-05 13:35 | 44.78643 | -0.51364 | 2818 ft | 156 kts | 286° |
| 2026-05-05 13:35 | 44.78959 | -0.52809 | 2613 ft | 156 kts | 285° |
| 2026-05-05 13:35 | 44.79269 | -0.54271 | 2407 ft | 155 kts | 285° |
| 2026-05-05 13:35 | 44.79567 | -0.55699 | 2208 ft | 155 kts | 285° |
| 2026-05-05 13:36 | 44.79866 | -0.57131 | 2007 ft | 154 kts | 285° |
| 2026-05-05 13:36 | 44.80168 | -0.58592 | 1802 ft | 154 kts | 285° |
| 2026-05-05 13:36 | 44.80464 | -0.60023 | 1619 ft | 144 kts | 286° |
| 2026-05-05 13:36 | 44.80729 | -0.61302 | 1402 ft | 132 kts | 286° |
| 2026-05-05 13:37 | 44.80985 | -0.62540 | 1231 ft | 131 kts | 286° |
| 2026-05-05 13:37 | 44.81238 | -0.63763 | 1066 ft | 130 kts | 287° |
| 2026-05-05 13:37 | 44.81499 | -0.64989 | 889 ft | 130 kts | 286° |
| 2026-05-05 13:37 | 44.81753 | -0.66212 | 721 ft | 130 kts | 285° |
| 2026-05-05 13:38 | 44.82007 | -0.67435 | 545 ft | 129 kts | 287° |
| 2026-05-05 13:38 | 44.82263 | -0.68648 | 379 ft | 129 kts | 287° |
| 2026-05-05 13:38 | 44.82518 | -0.69865 | 224 ft | 129 kts | 286° |
| 2026-05-05 13:38 | 44.82765 | -0.71030 | 164 ft | 106 kts | 282° |
| 2026-05-05 13:39 | 44.82895 | -0.71675 | 164 ft | 45 kts | 287° |
| 2026-05-05 13:39 | 44.82970 | -0.72034 | 163 ft | 16 kts | 285° |
| 2026-05-05 13:39 | 44.82991 | -0.72117 | 163 ft | 9 kts | 310° |
| 2026-05-05 13:39 | 44.83062 | -0.72123 | 162 ft | 11 kts | 13° |
| 2026-05-05 13:40 | 44.83146 | -0.72084 | 162 ft | 11 kts | 35° |
| 2026-05-05 13:40 | 44.83157 | -0.71972 | 163 ft | 13 kts | 103° |
| 2026-05-05 13:40 | 44.83128 | -0.71827 | 163 ft | 15 kts | 105° |
| 2026-05-05 13:40 | 44.83097 | -0.71678 | 164 ft | 15 kts | 106° |
| 2026-05-05 13:41 | 44.83071 | -0.71562 | 164 ft | 10 kts | 107° |
| 2026-05-05 13:41 | 44.83048 | -0.71447 | 164 ft | 13 kts | 105° |
| 2026-05-05 13:41 | 44.83020 | -0.71310 | 164 ft | 15 kts | 107° |
| 2026-05-05 13:41 | 44.82985 | -0.71159 | 164 ft | 17 kts | 108° |
| 2026-05-05 13:42 | 44.82964 | -0.71054 | 163 ft | 3 kts | 104° |
| 2026-05-05 13:42 | 44.82954 | -0.71005 | 163 ft | 6 kts | 105° |
| 2026-05-05 13:42 | 44.82938 | -0.70925 | 163 ft | 10 kts | 105° |
| 2026-05-05 13:42 | 44.82917 | -0.70819 | 162 ft | 12 kts | 105° |
| 2026-05-05 13:43 | 44.82896 | -0.70719 | 162 ft | 9 kts | 106° |
| 2026-05-05 13:43 | 44.82891 | -0.70697 | 162 ft | 1 kts | 107° |
| 2026-05-05 13:43 | 44.82886 | -0.70675 | 162 ft | 3 kts | 107° |
| 2026-05-05 13:43 | 44.82878 | -0.70636 | 162 ft | 4 kts | 107° |
| 2026-05-05 13:44 | 44.82865 | -0.70581 | 162 ft | 6 kts | 107° |
| 2026-05-05 13:44 | 44.82850 | -0.70513 | 162 ft | 7 kts | 108° |
| 2026-05-05 13:44 | 44.82832 | -0.70436 | 162 ft | 8 kts | 107° |
| 2026-05-05 13:44 | 44.82815 | -0.70351 | 163 ft | 8 kts | 106° |
| 2026-05-05 13:45 | 44.82797 | -0.70269 | 165 ft | 8 kts | 107° |
| 2026-05-05 13:45 | 44.82801 | -0.70189 | 165 ft | 8 kts | 43° |
| 2026-05-05 13:45 | 44.82832 | -0.70132 | 166 ft | 7 kts | 94° |
| 2026-05-05 13:45 | 44.82818 | -0.70060 | 167 ft | 7 kts | 106° |
| 2026-05-05 13:46 | 44.82807 | -0.69995 | 168 ft | 3 kts | 69° |
| 2026-05-05 13:46 | 44.82836 | -0.69983 | 168 ft | 2 kts | 15° |
| 2026-05-05 13:46 | 44.82857 | -0.69974 | 167 ft | 2 kts | 17° |
| 2026-05-05 13:46 | 44.82859 | -0.69973 | 167 ft | 0 kts | 17° |